createdAt,value
2023-05-22T03:47:10.450Z,8.35
2023-05-22T03:49:37.232Z,8.27
2023-05-22T03:52:04.260Z,8.15
2023-05-22T03:54:31.469Z,8.32
2023-05-22T03:56:58.171Z,8.02
2023-05-22T03:59:25.053Z,8.10
2023-05-22T04:01:51.845Z,8.27
2023-05-22T04:04:18.572Z,8.82
2023-05-22T04:06:45.580Z,8.13
2023-05-22T04:09:13.350Z,8.13
2023-05-22T04:11:40.193Z,9.13
2023-05-22T04:14:07.074Z,8.35
2023-05-22T04:16:34.207Z,8.65
2023-05-22T04:19:04.473Z,9.10
2023-05-22T04:21:34.083Z,9.18
2023-05-22T04:24:07.486Z,8.75
2023-05-22T04:26:34.564Z,8.57
2023-05-22T04:29:02.221Z,8.75
2023-05-22T04:31:29.273Z,8.57
2023-05-22T04:33:56.334Z,8.73
2023-05-22T04:36:26.093Z,9.43
2023-05-22T04:38:54.485Z,8.68
2023-05-22T04:41:26.511Z,8.82
2023-05-22T04:43:54.064Z,9.30
2023-05-22T04:46:21.127Z,9.13
2023-05-22T04:48:47.936Z,9.43
2023-05-22T04:51:14.887Z,12.98
2023-05-22T04:53:41.589Z,20.92
2023-05-22T04:56:08.357Z,13.27
2023-05-22T04:58:35.105Z,12.65
2023-05-22T05:01:03.390Z,10.85
2023-05-22T05:03:30.683Z,10.48
2023-05-22T05:05:57.550Z,10.50
2023-05-22T05:08:24.300Z,10.55
2023-05-22T05:10:51.259Z,10.35
2023-05-22T05:13:17.952Z,10.15
2023-05-22T05:15:44.801Z,9.35
2023-05-22T05:18:12.352Z,8.80
2023-05-22T05:20:39.321Z,9.27
2023-05-22T05:23:06.250Z,9.48
2023-05-22T05:25:33.077Z,8.27
2023-05-22T05:27:59.752Z,8.68
2023-05-22T05:30:26.501Z,9.18
2023-05-22T05:32:53.255Z,8.88
2023-05-22T05:35:20.067Z,8.27
2023-05-22T05:37:46.810Z,8.63
2023-05-22T05:40:13.903Z,9.43
2023-05-22T05:42:40.695Z,9.63
2023-05-22T05:45:07.829Z,8.77
2023-05-22T05:47:34.838Z,9.20
2023-05-22T05:50:01.817Z,8.50
2023-05-22T05:52:32.493Z,8.10
2023-05-22T05:55:00.982Z,9.23
2023-05-22T05:57:28.599Z,8.10
2023-05-22T05:59:55.357Z,8.75
2023-05-22T06:02:22.180Z,6.85
2023-05-22T06:04:49.231Z,7.90
2023-05-22T06:07:16.474Z,8.13
2023-05-22T06:09:43.511Z,7.78
2023-05-22T06:12:13.240Z,7.30
2023-05-22T06:14:42.731Z,7.40
2023-05-22T06:17:09.478Z,6.53
2023-05-22T06:19:36.586Z,7.47
2023-05-22T06:22:03.538Z,6.70
2023-05-22T06:24:31.925Z,7.85
2023-05-22T06:26:58.714Z,7.40
2023-05-22T06:29:25.666Z,6.38
2023-05-22T06:31:52.325Z,6.35
2023-05-22T06:34:19.232Z,6.70
2023-05-22T06:36:46.067Z,5.68
2023-05-22T06:39:12.861Z,7.22
2023-05-22T06:41:39.600Z,7.38
2023-05-22T06:44:06.787Z,6.93
2023-05-22T06:46:33.636Z,7.70
2023-05-22T06:49:00.706Z,6.88
2023-05-22T06:51:27.565Z,6.93
2023-05-22T06:53:54.569Z,6.55
2023-05-22T06:56:22.598Z,6.65
2023-05-22T06:58:49.401Z,6.55
2023-05-22T07:01:16.364Z,6.40
2023-05-22T07:03:43.175Z,6.57
2023-05-22T07:06:10.134Z,6.78
2023-05-22T07:08:37.060Z,6.18
2023-05-22T07:11:06.853Z,6.10
2023-05-22T07:13:34.065Z,6.63
2023-05-22T07:16:01.146Z,6.15
2023-05-22T07:18:27.988Z,6.28
2023-05-22T07:20:55.041Z,6.28
2023-05-22T07:23:22.954Z,6.20
2023-05-22T07:25:50.747Z,5.95
2023-05-22T07:28:17.575Z,6.45
2023-05-22T07:30:44.519Z,6.38
2023-05-22T07:33:11.762Z,6.40
2023-05-22T07:35:38.653Z,5.38
2023-05-22T07:38:05.559Z,5.63
2023-05-22T07:40:32.479Z,5.53
2023-05-22T07:42:59.318Z,5.22
2023-05-22T07:45:26.887Z,5.38
2023-05-22T07:47:56.153Z,4.72
2023-05-22T07:50:23.227Z,5.20
2023-05-22T07:52:50.018Z,4.78
2023-05-22T07:55:16.841Z,5.20
2023-05-22T07:57:44.470Z,5.75
2023-05-22T08:00:14.528Z,5.15
2023-05-22T08:02:41.842Z,5.10
2023-05-22T08:05:09.772Z,5.15
2023-05-22T08:07:37.054Z,4.60
2023-05-22T08:10:13.037Z,4.63
2023-05-22T08:12:39.822Z,5.47
2023-05-22T08:15:07.281Z,5.15
2023-05-22T08:17:34.745Z,4.88
2023-05-22T08:20:01.734Z,4.78
2023-05-22T08:22:30.036Z,5.28
2023-05-22T08:24:56.931Z,5.05
2023-05-22T08:27:23.765Z,5.38
2023-05-22T08:29:52.171Z,5.00
2023-05-22T08:32:19.031Z,5.38
2023-05-22T08:34:48.995Z,5.20
2023-05-22T08:37:15.904Z,5.90
2023-05-22T08:39:42.711Z,5.95
2023-05-22T08:42:09.482Z,5.68
2023-05-22T08:44:36.356Z,4.93
2023-05-22T08:47:09.944Z,5.25
2023-05-22T08:49:39.946Z,5.47
2023-05-22T08:52:48.191Z,5.47
2023-05-22T08:55:15.054Z,5.25
2023-05-22T08:57:42.954Z,5.53
2023-05-22T09:00:10.327Z,4.80
2023-05-22T09:02:38.715Z,5.22
2023-05-22T09:05:09.385Z,5.15
2023-05-22T09:07:40.874Z,4.68
2023-05-22T09:10:08.538Z,5.13
2023-05-22T09:12:35.449Z,5.40
2023-05-22T09:15:13.664Z,4.28
2023-05-22T09:17:41.286Z,4.90
2023-05-22T09:20:10.349Z,5.20
2023-05-22T09:22:39.181Z,5.35
2023-05-22T09:25:09.201Z,5.03
2023-05-22T09:27:36.414Z,5.22
2023-05-22T09:30:03.413Z,5.80
2023-05-22T09:32:31.167Z,5.15
2023-05-22T09:35:05.030Z,4.80
2023-05-22T09:37:36.353Z,4.78
2023-05-22T09:40:08.207Z,4.88
2023-05-22T09:42:35.850Z,4.53
2023-05-22T09:45:07.270Z,4.93
2023-05-22T09:47:34.999Z,5.00
2023-05-22T09:50:06.352Z,4.60
2023-05-22T09:52:38.270Z,4.47
2023-05-22T09:55:09.533Z,4.00
2023-05-22T09:57:44.189Z,4.28
2023-05-22T10:00:18.343Z,4.13
2023-05-22T10:02:51.870Z,4.93
2023-05-22T10:05:22.396Z,4.85
2023-05-22T10:07:51.869Z,4.28
2023-05-22T10:10:24.000Z,4.55
2023-05-22T10:13:02.604Z,4.47
2023-05-22T10:15:32.817Z,3.90
2023-05-22T10:18:00.824Z,3.97
2023-05-22T10:20:29.574Z,4.60
2023-05-22T10:22:57.753Z,4.20
2023-05-22T10:25:26.092Z,4.13
2023-05-22T10:27:54.246Z,4.50
2023-05-22T10:30:24.569Z,4.10
2023-05-22T10:32:55.640Z,3.95
2023-05-22T10:35:38.951Z,4.13
2023-05-22T10:40:56.147Z,3.85
2023-05-22T10:43:24.098Z,4.10
2023-05-22T10:46:05.670Z,3.85
2023-05-22T10:48:48.061Z,3.65
2023-05-22T10:51:18.100Z,3.95
2023-05-22T10:53:45.442Z,4.25
2023-05-22T10:56:15.000Z,3.40
2023-05-22T10:58:44.695Z,3.78
2023-05-22T11:01:15.477Z,3.38
2023-05-22T11:03:56.202Z,3.63
2023-05-22T11:06:37.119Z,4.35
2023-05-22T11:09:33.051Z,4.22
2023-05-22T11:12:25.693Z,3.95
2023-05-22T11:15:11.184Z,3.97
2023-05-22T11:17:43.061Z,4.25
2023-05-22T11:20:18.710Z,3.90
2023-05-22T11:22:58.001Z,3.80
2023-05-22T11:25:25.164Z,3.85
2023-05-22T11:27:54.688Z,3.50
2023-05-22T11:30:26.264Z,4.38
2023-05-22T11:32:53.608Z,4.03
2023-05-22T11:35:22.065Z,3.25
2023-05-22T11:37:51.260Z,4.05
2023-05-22T11:40:25.506Z,3.80
2023-05-22T11:42:56.328Z,3.83
2023-05-22T11:45:23.610Z,3.85
2023-05-22T11:47:50.845Z,4.00
2023-05-22T11:50:29.363Z,3.97
2023-05-22T11:55:28.380Z,3.92
2023-05-22T11:57:56.520Z,3.65
2023-05-22T12:00:23.453Z,3.90
2023-05-22T12:02:50.675Z,3.92
2023-05-22T12:05:21.330Z,3.72
2023-05-22T12:07:48.176Z,3.65
2023-05-22T12:10:15.547Z,3.53
2023-05-22T12:12:43.748Z,4.20
2023-05-22T12:15:10.910Z,3.67
2023-05-22T12:17:38.570Z,4.05
2023-05-22T12:20:07.075Z,4.00
2023-05-22T12:22:33.828Z,4.35
2023-05-22T12:25:00.622Z,3.78
2023-05-22T12:27:32.929Z,3.50
2023-05-22T12:29:59.916Z,4.00
2023-05-22T12:32:29.747Z,3.65
2023-05-22T12:34:58.922Z,4.38
2023-05-22T12:37:26.037Z,3.60
2023-05-22T12:39:57.451Z,4.28
2023-05-22T12:42:25.759Z,3.90
2023-05-22T12:44:57.102Z,3.03
2023-05-22T12:47:24.884Z,3.85
2023-05-22T12:49:52.295Z,3.28
2023-05-22T12:52:19.423Z,3.15
2023-05-22T12:54:46.192Z,3.70
2023-05-22T12:57:14.249Z,3.40
2023-05-22T12:59:41.138Z,3.78
2023-05-22T13:02:08.287Z,3.50
2023-05-22T13:04:35.118Z,3.38
2023-05-22T13:07:01.906Z,3.63
2023-05-22T13:09:28.636Z,4.32
2023-05-22T13:11:55.725Z,3.60
2023-05-22T13:14:22.670Z,3.83
2023-05-22T13:16:49.434Z,3.85
2023-05-22T13:19:16.329Z,3.60
2023-05-22T13:21:43.643Z,3.60
2023-05-22T13:24:10.405Z,3.55
2023-05-22T13:26:37.115Z,3.40
2023-05-22T13:29:04.335Z,3.42
2023-05-22T13:31:33.360Z,3.50
2023-05-22T13:34:02.951Z,3.30
2023-05-22T13:36:30.812Z,3.30
2023-05-22T13:38:57.616Z,4.00
2023-05-22T13:41:24.510Z,3.97
2023-05-22T13:43:51.277Z,3.75
2023-05-22T13:46:20.438Z,4.00
2023-05-22T13:48:47.184Z,3.40
2023-05-22T13:51:13.972Z,3.45
2023-05-22T13:53:40.764Z,3.53
2023-05-22T13:56:07.557Z,3.40
2023-05-22T13:58:34.646Z,3.58
2023-05-22T14:03:28.157Z,3.53
2023-05-22T14:05:54.903Z,3.63
2023-05-22T14:08:21.687Z,3.60
2023-05-22T14:10:48.428Z,3.40
2023-05-22T14:13:15.253Z,3.88
2023-05-22T14:15:42.746Z,3.17
2023-05-22T14:18:09.716Z,3.47
2023-05-22T14:20:36.699Z,3.47
2023-05-22T14:23:03.547Z,3.58
2023-05-22T14:25:30.415Z,3.30
2023-05-22T14:27:57.363Z,3.60
2023-05-22T14:30:24.264Z,3.10
2023-05-22T14:32:51.237Z,3.20
2023-05-22T14:35:19.100Z,3.50
2023-05-22T14:37:46.034Z,3.25
2023-05-22T14:40:12.887Z,2.80
2023-05-22T14:42:39.705Z,3.28
2023-05-22T14:45:06.836Z,2.78
2023-05-22T14:47:33.737Z,3.10
2023-05-22T14:50:14.609Z,3.60
2023-05-22T14:52:46.260Z,3.22
2023-05-22T14:55:13.123Z,3.25
2023-05-22T14:57:39.949Z,3.60
2023-05-22T15:00:08.989Z,3.42
2023-05-22T15:02:36.632Z,3.50
2023-05-22T15:05:03.795Z,3.20
2023-05-22T15:07:43.057Z,3.63
2023-05-22T15:10:11.489Z,3.63
2023-05-22T15:12:38.378Z,3.33
2023-05-22T15:15:05.561Z,3.38
2023-05-22T15:17:32.370Z,3.10
2023-05-22T15:19:59.351Z,3.70
2023-05-22T15:22:26.053Z,3.28
2023-05-22T15:25:11.511Z,3.25
2023-05-22T15:27:39.241Z,3.80
2023-05-22T15:30:06.795Z,3.55
2023-05-22T15:32:33.730Z,3.50
2023-05-22T15:35:00.804Z,3.30
2023-05-22T15:37:30.228Z,3.10
2023-05-22T15:39:58.308Z,3.72
2023-05-22T15:42:25.015Z,3.72
2023-05-22T15:44:51.903Z,3.58
2023-05-22T15:47:18.625Z,3.97
2023-05-22T15:49:45.865Z,3.63
2023-05-22T15:52:12.617Z,3.78
2023-05-22T15:54:39.289Z,4.30
2023-05-22T15:57:06.153Z,3.70
2023-05-22T15:59:33.001Z,3.72
2023-05-22T16:01:59.759Z,3.60
2023-05-22T16:04:26.604Z,16.83
2023-05-22T16:06:53.351Z,3.85
2023-05-22T16:09:20.231Z,3.65
2023-05-22T16:11:47.021Z,3.90
2023-05-22T16:14:13.738Z,4.05
2023-05-22T16:16:41.074Z,3.70
2023-05-22T16:19:08.210Z,3.50
2023-05-22T16:21:35.034Z,3.55
2023-05-22T16:24:01.872Z,3.67
2023-05-22T16:26:28.598Z,3.78
2023-05-22T16:28:55.313Z,3.78
2023-05-22T16:31:22.293Z,3.30
2023-05-22T16:33:49.118Z,3.53
2023-05-22T16:36:15.913Z,3.63
2023-05-22T16:38:42.722Z,3.63
2023-05-22T16:41:09.452Z,3.45
2023-05-22T16:43:37.757Z,4.20
2023-05-22T16:46:04.606Z,4.05
2023-05-22T16:48:31.390Z,3.95
2023-05-22T16:50:58.146Z,3.85
2023-05-22T16:53:25.012Z,3.90
2023-05-22T16:55:51.945Z,3.85
2023-05-22T16:58:19.076Z,3.60
2023-05-22T17:00:46.156Z,3.58
2023-05-22T17:03:14.272Z,3.92
2023-05-22T17:05:41.720Z,3.72
2023-05-22T17:08:08.761Z,3.40
2023-05-22T17:10:35.699Z,3.03
2023-05-22T17:13:02.572Z,3.20
2023-05-22T17:15:29.430Z,3.20
2023-05-22T17:17:56.578Z,3.20
2023-05-22T17:20:23.414Z,3.50
2023-05-22T17:22:50.269Z,3.53
2023-05-22T17:25:17.087Z,3.22
2023-05-22T17:27:44.221Z,3.15
2023-05-22T17:30:11.388Z,2.58
2023-05-22T17:32:38.375Z,2.72
2023-05-22T17:35:06.897Z,2.67
2023-05-22T17:37:34.157Z,3.00
2023-05-22T17:40:01.163Z,2.97
2023-05-22T17:42:28.087Z,3.10
2023-05-22T17:44:54.819Z,3.17
2023-05-22T17:47:22.222Z,3.47
2023-05-22T17:49:49.134Z,3.47
2023-05-22T17:52:16.155Z,2.90
2023-05-22T17:54:43.018Z,3.15
2023-05-22T17:57:09.851Z,3.00
2023-05-22T17:59:39.226Z,2.85
2023-05-22T18:02:11.587Z,3.03
2023-05-22T18:04:40.973Z,3.33
2023-05-22T18:07:09.086Z,3.78
2023-05-22T18:09:36.561Z,3.45
2023-05-22T18:12:03.825Z,3.30
2023-05-22T18:14:31.531Z,3.28
2023-05-22T18:16:58.714Z,3.97
2023-05-22T18:19:25.782Z,4.00
2023-05-22T18:21:53.756Z,4.38
2023-05-22T18:24:32.849Z,4.28
2023-05-22T18:30:44.697Z,3.70
2023-05-22T18:33:12.555Z,3.60
2023-05-22T18:35:42.396Z,3.97
2023-05-22T18:38:10.426Z,4.00
2023-05-22T18:40:38.161Z,3.75
2023-05-22T18:43:05.239Z,3.95
2023-05-22T18:45:32.093Z,3.67
2023-05-22T18:47:59.121Z,3.50
2023-05-22T18:50:26.660Z,4.00
2023-05-22T18:52:53.669Z,3.95
2023-05-22T18:55:22.279Z,3.85
2023-05-22T18:57:49.017Z,3.63
2023-05-22T19:00:16.423Z,3.40
2023-05-22T19:02:43.183Z,4.22
2023-05-22T19:05:10.398Z,4.03
2023-05-22T19:07:37.094Z,4.03
2023-05-22T19:10:07.092Z,3.72
2023-05-22T19:12:34.659Z,4.40
2023-05-22T19:15:01.389Z,4.70
2023-05-22T19:17:28.159Z,3.95
2023-05-22T19:19:54.950Z,4.05
2023-05-22T19:22:21.629Z,3.80
2023-05-22T19:24:48.265Z,4.15
2023-05-22T19:27:14.982Z,4.28
2023-05-22T19:29:41.748Z,4.25
2023-05-22T19:32:08.505Z,4.22
2023-05-22T19:34:35.396Z,4.53
2023-05-22T19:37:02.100Z,4.63
2023-05-22T19:39:28.840Z,4.30
2023-05-22T19:41:55.781Z,4.22
2023-05-22T19:44:22.484Z,4.25
2023-05-22T19:46:49.264Z,4.82
2023-05-22T19:49:16.114Z,5.13
2023-05-22T19:51:43.916Z,4.75
2023-05-22T19:54:10.626Z,4.50
2023-05-22T19:56:37.256Z,4.38
2023-05-22T19:59:03.913Z,4.72
2023-05-22T20:01:30.629Z,4.65
2023-05-22T20:03:57.431Z,4.97
2023-05-22T20:06:24.321Z,4.78
2023-05-22T20:08:50.987Z,5.15
2023-05-22T20:11:17.661Z,5.20
2023-05-22T20:13:44.351Z,5.03
2023-05-22T20:16:12.677Z,5.03
2023-05-22T20:18:40.972Z,4.65
2023-05-22T20:21:08.075Z,4.63
2023-05-22T20:23:34.820Z,5.00
2023-05-22T20:26:01.534Z,5.40
2023-05-22T20:28:28.444Z,5.53
2023-05-22T20:30:55.303Z,4.80
2023-05-22T20:33:22.517Z,5.13
2023-05-22T20:35:52.885Z,5.13
2023-05-22T20:38:20.057Z,4.93
2023-05-22T20:40:47.461Z,4.93
2023-05-22T20:43:14.900Z,4.63
2023-05-22T20:45:45.481Z,5.65
2023-05-22T20:48:15.268Z,5.00
2023-05-22T20:50:42.392Z,5.20
2023-05-22T20:53:09.103Z,4.90
2023-05-22T20:55:36.110Z,5.80
2023-05-22T20:58:02.921Z,5.38
2023-05-22T21:00:29.880Z,5.38
2023-05-22T21:02:58.405Z,5.47
2023-05-22T21:05:25.619Z,5.50
2023-05-22T21:07:52.312Z,6.13
2023-05-22T21:10:19.016Z,5.57
2023-05-22T21:12:45.957Z,5.82
2023-05-22T21:15:12.636Z,5.50
2023-05-22T21:17:39.418Z,5.55
2023-05-22T21:20:06.728Z,5.72
2023-05-22T21:22:33.391Z,5.88
2023-05-22T21:25:00.092Z,5.95
2023-05-22T21:27:26.830Z,5.68
2023-05-22T21:29:53.511Z,6.65
2023-05-22T21:32:20.316Z,6.00
2023-05-22T21:34:47.285Z,6.07
2023-05-22T21:37:13.942Z,6.40
2023-05-22T21:39:41.160Z,6.53
2023-05-22T21:42:08.639Z,6.93
2023-05-22T21:44:35.815Z,6.63
2023-05-22T21:47:02.665Z,7.15
2023-05-22T21:49:29.492Z,6.88
2023-05-22T21:51:56.160Z,6.70
2023-05-22T21:54:22.838Z,5.95
2023-05-22T21:56:49.528Z,6.15
2023-05-22T21:59:16.202Z,6.53
2023-05-22T22:01:43.035Z,7.15
2023-05-22T22:04:09.856Z,7.20
2023-05-22T22:06:36.751Z,7.38
2023-05-22T22:09:03.709Z,6.82
2023-05-22T22:11:30.633Z,7.05
2023-05-22T22:13:57.374Z,7.20
2023-05-22T22:16:24.366Z,7.30
2023-05-22T22:18:51.363Z,7.97
2023-05-22T22:21:18.187Z,7.97
2023-05-22T22:23:44.913Z,6.25
2023-05-22T22:26:14.627Z,7.43
2023-05-22T22:28:41.263Z,7.35
2023-05-22T22:31:07.930Z,7.07
2023-05-22T22:33:34.703Z,7.03
2023-05-22T22:36:01.780Z,7.28
2023-05-22T22:38:28.868Z,6.97
2023-05-22T22:40:55.598Z,7.72
2023-05-22T22:43:22.266Z,7.97
2023-05-22T22:45:48.980Z,8.10
2023-05-22T22:48:16.584Z,7.25
2023-05-22T22:50:43.988Z,8.52
2023-05-22T22:53:10.695Z,7.45
2023-05-22T22:55:38.056Z,8.50
2023-05-22T22:58:05.624Z,7.53
